createdAt,value
2017-07-10T00:00:40.603Z,20.11
2017-07-10T00:03:10.058Z,20.01
2017-07-10T00:05:39.539Z,19.95
2017-07-10T00:08:08.994Z,19.92
2017-07-10T00:10:38.464Z,19.91
2017-07-10T00:13:07.901Z,19.89
2017-07-10T00:15:37.361Z,19.94
2017-07-10T00:18:06.817Z,19.94
2017-07-10T00:20:36.257Z,19.92
2017-07-10T00:23:05.706Z,19.92
2017-07-10T00:25:35.157Z,19.91
2017-07-10T00:28:04.617Z,19.92
2017-07-10T00:30:34.078Z,19.89
2017-07-10T00:33:03.552Z,19.89
2017-07-10T00:35:33.025Z,19.83
2017-07-10T00:38:02.467Z,19.77
2017-07-10T00:40:31.919Z,19.70
2017-07-10T00:43:01.406Z,19.73
2017-07-10T00:45:31.122Z,19.71
2017-07-10T00:48:00.586Z,19.61
2017-07-10T00:50:30.033Z,19.56
2017-07-10T00:52:59.301Z,19.53
2017-07-10T00:55:28.759Z,19.52
2017-07-10T00:57:58.334Z,19.49
2017-07-10T01:00:27.774Z,19.48
2017-07-10T01:02:57.079Z,19.44
2017-07-10T01:05:26.524Z,19.44
2017-07-10T01:07:55.977Z,19.45
2017-07-10T01:10:25.257Z,19.48
2017-07-10T01:12:54.724Z,19.42
2017-07-10T01:15:24.159Z,19.32
2017-07-10T01:17:53.645Z,19.22
2017-07-10T01:20:23.100Z,19.11
2017-07-10T01:22:52.548Z,19.03
2017-07-10T01:25:22.007Z,18.94
2017-07-10T01:27:51.473Z,18.87
2017-07-10T01:30:20.918Z,18.83
2017-07-10T01:32:50.386Z,18.77
2017-07-10T01:35:19.850Z,18.73
2017-07-10T01:37:49.122Z,18.69
2017-07-10T01:40:18.571Z,18.64
2017-07-10T01:42:48.028Z,18.56
2017-07-10T01:45:17.489Z,18.49
2017-07-10T01:47:46.766Z,18.41
2017-07-10T01:50:16.220Z,18.37
2017-07-10T01:52:45.321Z,18.32
2017-07-10T01:55:14.782Z,18.28
2017-07-10T01:57:44.234Z,18.25
2017-07-10T02:00:14.413Z,18.25
2017-07-10T02:02:43.715Z,18.24
2017-07-10T02:05:12.812Z,18.26
2017-07-10T02:07:42.276Z,18.27
2017-07-10T02:10:11.712Z,18.29
2017-07-10T02:12:41.177Z,18.34
2017-07-10T02:15:10.629Z,18.45
2017-07-10T02:17:40.090Z,18.56
2017-07-10T02:20:09.560Z,18.55
2017-07-10T02:22:39.119Z,18.50
2017-07-10T02:25:08.578Z,18.46
2017-07-10T02:27:38.034Z,18.42
2017-07-10T02:30:07.485Z,18.38
2017-07-10T02:32:36.934Z,18.35
2017-07-10T02:35:06.392Z,18.31
2017-07-10T02:37:35.852Z,18.32
2017-07-10T02:40:05.307Z,18.29
2017-07-10T02:42:34.756Z,18.28
2017-07-10T02:45:04.021Z,18.26
2017-07-10T02:47:33.505Z,18.25
2017-07-10T02:50:02.616Z,18.26
2017-07-10T02:52:32.061Z,18.25
2017-07-10T02:55:01.529Z,18.23
2017-07-10T02:57:30.980Z,18.22
2017-07-10T03:00:00.455Z,18.19
2017-07-10T03:02:29.914Z,18.18
2017-07-10T03:04:59.359Z,18.17
2017-07-10T03:07:28.817Z,18.14
2017-07-10T03:09:58.323Z,18.15
2017-07-10T03:12:27.765Z,18.11
2017-07-10T03:14:57.224Z,18.13
2017-07-10T03:17:26.666Z,18.10
2017-07-10T03:19:56.113Z,18.09
2017-07-10T03:22:25.571Z,18.11
2017-07-10T03:24:55.022Z,18.12
2017-07-10T03:27:24.491Z,18.16
2017-07-10T03:29:53.600Z,18.15
2017-07-10T03:32:22.739Z,18.14
2017-07-10T03:34:52.184Z,18.13
2017-07-10T03:37:21.316Z,18.14
2017-07-10T03:39:50.753Z,18.17
2017-07-10T03:42:20.227Z,18.22
2017-07-10T03:44:49.685Z,18.29
2017-07-10T03:47:19.141Z,18.35
2017-07-10T03:49:48.589Z,18.39
2017-07-10T03:52:18.047Z,18.39
2017-07-10T03:54:47.506Z,18.37
2017-07-10T03:57:16.985Z,18.43
2017-07-10T03:59:46.435Z,18.47
2017-07-10T04:02:15.885Z,18.57
2017-07-10T04:04:45.347Z,18.67
2017-07-10T04:07:15.051Z,18.74
2017-07-10T04:09:44.526Z,18.82
2017-07-10T04:12:13.966Z,18.90
2017-07-10T04:14:43.424Z,18.93
2017-07-10T04:17:12.870Z,19.06
2017-07-10T04:19:42.326Z,19.12
2017-07-10T04:22:11.775Z,19.26
2017-07-10T04:24:41.237Z,19.37
2017-07-10T04:27:10.685Z,19.41
2017-07-10T04:29:40.148Z,19.44
2017-07-10T04:32:09.598Z,19.52
2017-07-10T04:34:38.859Z,19.64
2017-07-10T04:37:08.604Z,19.74
2017-07-10T04:39:38.386Z,19.86
2017-07-10T04:42:08.140Z,19.97
2017-07-10T04:44:37.606Z,20.07
2017-07-10T04:47:07.081Z,20.12
2017-07-10T04:49:36.553Z,20.22
2017-07-10T04:52:06.007Z,20.20
2017-07-10T04:54:35.470Z,20.24
2017-07-10T04:57:04.958Z,20.33
2017-07-10T04:59:34.402Z,20.40
2017-07-10T05:02:03.845Z,20.48
2017-07-10T05:04:33.311Z,20.39
2017-07-10T05:07:02.764Z,20.41
2017-07-10T05:09:32.237Z,20.43
2017-07-10T05:12:01.752Z,20.47
2017-07-10T05:14:31.205Z,20.58
2017-07-10T05:17:00.678Z,20.68
2017-07-10T05:19:30.146Z,20.81
2017-07-10T05:21:59.611Z,20.83
2017-07-10T05:24:29.049Z,20.86
2017-07-10T05:26:58.554Z,20.87
2017-07-10T05:29:27.980Z,20.90
2017-07-10T05:31:57.437Z,20.96
2017-07-10T05:34:26.893Z,21.06
2017-07-10T05:36:56.333Z,21.20
2017-07-10T05:39:25.794Z,21.25
2017-07-10T05:41:55.249Z,21.40
2017-07-10T05:44:24.693Z,21.53
2017-07-10T05:46:54.166Z,21.73
2017-07-10T05:49:23.627Z,21.88
2017-07-10T05:51:53.070Z,21.97
2017-07-10T05:54:22.517Z,22.09
2017-07-10T05:56:51.986Z,22.08
2017-07-10T05:59:21.422Z,21.88
2017-07-10T06:01:50.885Z,21.98
2017-07-10T06:04:20.338Z,22.08
2017-07-10T06:06:49.790Z,22.28
2017-07-10T06:09:19.234Z,22.57
2017-07-10T06:11:48.691Z,22.97
2017-07-10T06:14:18.138Z,23.08
2017-07-10T06:16:47.606Z,23.41
2017-07-10T06:19:17.052Z,23.48
2017-07-10T06:21:46.508Z,23.58
2017-07-10T06:24:15.963Z,23.73
2017-07-10T06:26:47.054Z,23.90
2017-07-10T06:29:16.515Z,24.19
2017-07-10T06:31:45.953Z,24.09
2017-07-10T06:34:15.405Z,24.20
2017-07-10T06:36:44.913Z,24.31
2017-07-10T06:39:14.178Z,24.57
2017-07-10T06:41:43.644Z,24.65
2017-07-10T06:44:13.190Z,24.67
2017-07-10T06:46:42.657Z,24.65
2017-07-10T06:49:11.912Z,24.59
2017-07-10T06:51:41.363Z,24.80
2017-07-10T06:54:10.810Z,24.82
2017-07-10T06:56:40.251Z,24.78
2017-07-10T06:59:09.708Z,24.50
2017-07-10T07:01:39.154Z,24.69
2017-07-10T07:04:08.619Z,24.67
2017-07-10T07:06:38.059Z,24.71
2017-07-10T07:09:07.530Z,24.73
2017-07-10T07:11:37.001Z,24.68
2017-07-10T07:14:06.474Z,24.91
2017-07-10T07:16:35.930Z,24.64
2017-07-10T07:19:05.380Z,24.44
2017-07-10T07:21:34.825Z,24.73
2017-07-10T07:24:04.281Z,24.84
2017-07-10T07:26:33.728Z,25.12
2017-07-10T07:29:03.175Z,25.18
2017-07-10T07:31:32.700Z,25.24
2017-07-10T07:34:02.129Z,25.32
2017-07-10T07:36:31.592Z,25.75
2017-07-10T07:39:01.034Z,25.38
2017-07-10T07:41:30.482Z,25.61
2017-07-10T07:43:59.937Z,25.78
2017-07-10T07:46:29.390Z,25.95
2017-07-10T07:48:58.846Z,25.90
2017-07-10T07:51:28.295Z,25.94
2017-07-10T07:53:57.743Z,25.76
2017-07-10T07:56:27.193Z,25.83
2017-07-10T07:58:57.450Z,25.85
2017-07-10T08:01:26.916Z,25.90
2017-07-10T08:03:56.402Z,25.97
2017-07-10T08:06:25.864Z,25.90
2017-07-10T08:08:55.288Z,26.03
2017-07-10T08:11:24.749Z,26.09
2017-07-10T08:13:54.207Z,26.06
2017-07-10T08:16:23.655Z,26.15
2017-07-10T08:18:53.109Z,26.18
2017-07-10T08:21:22.540Z,26.38
2017-07-10T08:23:51.977Z,26.59
2017-07-10T08:26:21.437Z,26.68
2017-07-10T08:28:50.893Z,26.67
2017-07-10T08:31:20.327Z,27.12
2017-07-10T08:33:49.775Z,27.37
2017-07-10T08:36:19.406Z,26.83
2017-07-10T08:38:48.951Z,26.81
2017-07-10T08:41:18.401Z,26.74
2017-07-10T08:43:47.850Z,27.29
2017-07-10T08:46:17.294Z,27.70
2017-07-10T08:48:46.767Z,27.59
2017-07-10T08:51:16.215Z,27.58
2017-07-10T08:53:45.671Z,28.11
2017-07-10T08:56:15.120Z,28.74
2017-07-10T08:58:44.585Z,28.85
2017-07-10T09:01:14.026Z,28.37
2017-07-10T09:03:43.157Z,28.17
2017-07-10T09:06:12.628Z,28.66
2017-07-10T09:08:42.072Z,28.61
2017-07-10T09:11:11.547Z,28.95
2017-07-10T09:13:40.993Z,29.00
2017-07-10T09:16:10.457Z,28.86
2017-07-10T09:18:39.926Z,28.65
2017-07-10T09:21:09.400Z,28.29
2017-07-10T09:23:38.848Z,28.50
2017-07-10T09:26:08.309Z,28.50
2017-07-10T09:28:37.773Z,29.32
2017-07-10T09:31:07.225Z,29.51
2017-07-10T09:33:36.681Z,29.16
2017-07-10T09:36:06.152Z,28.09
2017-07-10T09:38:35.601Z,28.25
2017-07-10T09:41:05.064Z,28.32
2017-07-10T09:43:34.526Z,28.15
2017-07-10T09:46:03.980Z,27.92
2017-07-10T09:48:33.441Z,28.02
2017-07-10T09:51:02.892Z,27.86
2017-07-10T09:53:33.257Z,28.15
2017-07-10T09:56:02.895Z,27.93
2017-07-10T09:58:32.325Z,27.79
2017-07-10T10:01:01.785Z,27.74
2017-07-10T10:03:31.246Z,27.81
2017-07-10T10:06:00.690Z,27.21
2017-07-10T10:08:30.161Z,27.50
2017-07-10T10:10:59.602Z,27.48
2017-07-10T10:13:29.785Z,27.36
2017-07-10T10:15:59.246Z,27.68
2017-07-10T10:18:28.693Z,27.67
2017-07-10T10:20:57.828Z,27.71
2017-07-10T10:23:27.257Z,27.42
2017-07-10T10:25:56.713Z,27.70
2017-07-10T10:28:26.158Z,28.11
2017-07-10T10:30:55.607Z,27.40
2017-07-10T10:33:25.054Z,27.77
2017-07-10T10:35:54.505Z,27.68
2017-07-10T10:38:23.962Z,27.72
2017-07-10T10:40:53.421Z,27.70
2017-07-10T10:43:22.889Z,27.64
2017-07-10T10:45:52.342Z,27.87
2017-07-10T10:48:21.794Z,27.89
2017-07-10T10:50:51.247Z,28.13
2017-07-10T10:53:20.702Z,27.71
2017-07-10T10:55:50.152Z,27.68
2017-07-10T10:58:19.603Z,27.81
2017-07-10T11:00:49.072Z,28.18
2017-07-10T11:03:18.538Z,28.40
2017-07-10T11:05:48.001Z,27.81
2017-07-10T11:08:17.489Z,27.73
2017-07-10T11:10:46.940Z,28.04
2017-07-10T11:13:16.400Z,28.26
2017-07-10T11:15:46.149Z,28.55
2017-07-10T11:18:15.401Z,28.70
2017-07-10T11:20:44.866Z,28.57
2017-07-10T11:23:14.321Z,28.76
2017-07-10T11:25:43.765Z,28.46
2017-07-10T11:28:13.206Z,28.58
2017-07-10T11:30:42.657Z,28.81
2017-07-10T11:33:12.122Z,28.92
2017-07-10T11:35:41.566Z,28.81
2017-07-10T11:38:11.016Z,28.65
2017-07-10T11:40:40.487Z,28.89
2017-07-10T11:43:09.925Z,28.81
2017-07-10T11:45:39.377Z,28.89
2017-07-10T11:48:08.825Z,29.53
2017-07-10T11:50:38.275Z,29.72
2017-07-10T11:53:07.812Z,29.82
2017-07-10T11:55:37.249Z,29.68
2017-07-10T11:58:06.695Z,30.06
2017-07-10T12:00:36.144Z,29.77
2017-07-10T12:03:05.681Z,29.91
2017-07-10T12:05:35.121Z,29.88
2017-07-10T12:08:04.566Z,29.81
2017-07-10T12:10:34.019Z,29.50
2017-07-10T12:13:03.278Z,29.16
2017-07-10T12:15:32.989Z,29.57
2017-07-10T12:18:02.445Z,29.58
2017-07-10T12:20:31.901Z,29.88
2017-07-10T12:23:01.353Z,30.13
2017-07-10T12:25:30.803Z,29.66
2017-07-10T12:28:00.274Z,29.50
2017-07-10T12:30:29.728Z,29.92
2017-07-10T12:32:59.194Z,31.21
2017-07-10T12:35:28.638Z,31.31
2017-07-10T12:37:58.094Z,31.38
2017-07-10T12:40:27.525Z,32.36
2017-07-10T12:42:56.978Z,32.35
2017-07-10T12:45:26.449Z,33.28
2017-07-10T12:47:55.995Z,33.97
2017-07-10T12:50:25.453Z,34.84
2017-07-10T12:52:54.906Z,34.92
2017-07-10T12:55:24.338Z,34.44
2017-07-10T12:57:53.799Z,34.54
2017-07-10T13:00:23.242Z,33.92
2017-07-10T13:02:52.698Z,33.86
2017-07-10T13:05:22.144Z,33.93
2017-07-10T13:07:51.625Z,35.12
2017-07-10T13:10:21.117Z,33.56
2017-07-10T13:12:51.421Z,34.99
2017-07-10T13:15:20.682Z,34.76
2017-07-10T13:17:50.142Z,34.28
2017-07-10T13:20:19.602Z,33.54
2017-07-10T13:22:49.073Z,33.38
2017-07-10T13:25:18.527Z,33.91
2017-07-10T13:27:47.981Z,34.28
2017-07-10T13:30:17.449Z,34.57
2017-07-10T13:32:46.901Z,34.70
2017-07-10T13:35:16.348Z,32.46
2017-07-10T13:37:45.805Z,33.58
2017-07-10T13:40:15.250Z,34.52
2017-07-10T13:42:44.715Z,35.77
2017-07-10T13:45:14.227Z,35.61
2017-07-10T13:47:43.684Z,36.65
2017-07-10T13:50:13.141Z,35.32
2017-07-10T13:52:42.603Z,35.78
2017-07-10T13:55:12.090Z,35.78
2017-07-10T13:57:41.521Z,36.07
2017-07-10T14:00:10.968Z,35.30
2017-07-10T14:02:40.421Z,35.24
2017-07-10T14:05:09.870Z,34.76
2017-07-10T14:07:39.313Z,35.92
2017-07-10T14:10:08.770Z,36.06
2017-07-10T14:12:38.230Z,34.32
2017-07-10T14:15:07.682Z,34.31
2017-07-10T14:17:36.776Z,35.11
2017-07-10T14:20:06.241Z,34.58
2017-07-10T14:22:35.701Z,34.86
2017-07-10T14:25:05.166Z,35.57
2017-07-10T14:27:34.625Z,36.81
2017-07-10T14:30:04.187Z,36.73
2017-07-10T14:32:33.658Z,37.39
2017-07-10T14:35:03.114Z,35.96
2017-07-10T14:37:32.567Z,35.96
2017-07-10T14:40:02.021Z,36.78
2017-07-10T14:42:31.477Z,36.28
2017-07-10T14:45:00.935Z,34.87
2017-07-10T14:47:30.434Z,35.24
2017-07-10T14:49:59.878Z,36.31
2017-07-10T14:52:29.321Z,36.16
2017-07-10T14:54:58.785Z,35.60
2017-07-10T14:57:28.217Z,36.18
2017-07-10T14:59:57.674Z,37.87
2017-07-10T15:02:27.137Z,37.24
2017-07-10T15:04:56.627Z,38.59
2017-07-10T15:07:26.107Z,39.00
2017-07-10T15:09:55.399Z,37.87
2017-07-10T15:12:24.866Z,37.31
2017-07-10T15:14:54.594Z,37.38
2017-07-10T15:17:25.151Z,38.55
2017-07-10T15:19:54.792Z,37.36
2017-07-10T15:22:24.317Z,37.87
2017-07-10T15:24:54.067Z,38.20
2017-07-10T15:27:23.515Z,38.04
2017-07-10T15:29:53.032Z,37.29
2017-07-10T15:32:22.502Z,37.03
2017-07-10T15:34:52.006Z,37.99
2017-07-10T15:37:21.261Z,37.75
2017-07-10T15:39:50.717Z,38.63
2017-07-10T15:42:20.241Z,39.14
2017-07-10T15:44:49.674Z,39.19
2017-07-10T15:47:19.124Z,38.39
2017-07-10T15:49:48.567Z,37.34
2017-07-10T15:52:18.069Z,36.67
2017-07-10T15:54:47.510Z,35.10
2017-07-10T15:57:16.974Z,34.16
2017-07-10T15:59:46.501Z,33.57
2017-07-10T16:02:15.946Z,33.36
2017-07-10T16:04:45.397Z,32.92
2017-07-10T16:07:14.870Z,32.06
2017-07-10T16:09:44.125Z,32.69
2017-07-10T16:12:13.635Z,33.78
2017-07-10T16:14:43.077Z,34.47
2017-07-10T16:17:12.531Z,36.00
2017-07-10T16:19:41.986Z,36.23
2017-07-10T16:22:11.437Z,35.51
2017-07-10T16:24:40.885Z,35.13
2017-07-10T16:27:10.327Z,34.23
2017-07-10T16:29:39.918Z,34.12
2017-07-10T16:32:09.409Z,33.36
2017-07-10T16:34:38.837Z,34.35
2017-07-10T16:37:08.369Z,34.51
2017-07-10T16:39:37.808Z,33.42
2017-07-10T16:42:07.266Z,32.40
2017-07-10T16:44:36.726Z,32.11
2017-07-10T16:47:06.203Z,31.79
2017-07-10T16:49:35.627Z,31.67
2017-07-10T16:52:05.094Z,31.37
2017-07-10T16:54:34.538Z,31.02
2017-07-10T16:57:03.991Z,30.51
2017-07-10T16:59:33.458Z,30.25
2017-07-10T17:02:02.915Z,30.60
2017-07-10T17:04:32.371Z,31.71
2017-07-10T17:07:01.821Z,32.60
2017-07-10T17:09:31.283Z,33.36
2017-07-10T17:12:00.727Z,34.48
2017-07-10T17:14:30.157Z,34.56
2017-07-10T17:16:59.619Z,34.22
2017-07-10T17:19:29.077Z,34.96
2017-07-10T17:21:58.518Z,34.67
2017-07-10T17:24:27.953Z,34.17
2017-07-10T17:26:57.407Z,34.53
2017-07-10T17:29:26.863Z,34.68
2017-07-10T17:31:56.340Z,34.31
2017-07-10T17:34:25.782Z,33.46
2017-07-10T17:36:55.239Z,33.57
2017-07-10T17:39:24.691Z,33.18
2017-07-10T17:41:54.149Z,33.29
2017-07-10T17:44:23.602Z,32.22
2017-07-10T17:46:53.064Z,33.02
2017-07-10T17:49:22.509Z,32.80
2017-07-10T17:51:51.966Z,32.27
2017-07-10T17:54:21.426Z,32.32
2017-07-10T17:56:50.867Z,32.78
2017-07-10T17:59:20.332Z,33.01
2017-07-10T18:01:49.776Z,32.72
2017-07-10T18:04:19.223Z,32.42
2017-07-10T18:06:48.679Z,32.52
2017-07-10T18:09:18.141Z,32.52
2017-07-10T18:11:48.433Z,32.13
2017-07-10T18:14:17.895Z,32.05
2017-07-10T18:16:47.349Z,31.43
2017-07-10T18:19:16.846Z,30.61
2017-07-10T18:21:46.282Z,30.29
2017-07-10T18:24:15.804Z,29.95
2017-07-10T18:26:45.269Z,30.05
2017-07-10T18:29:14.714Z,29.84
2017-07-10T18:31:44.171Z,29.74
2017-07-10T18:34:13.644Z,29.51
2017-07-10T18:36:43.105Z,29.30
2017-07-10T18:39:12.554Z,28.99
2017-07-10T18:41:42.008Z,28.74
2017-07-10T18:44:11.482Z,28.55
2017-07-10T18:46:41.167Z,28.31
2017-07-10T18:49:10.650Z,28.12
2017-07-10T18:51:40.903Z,27.95
2017-07-10T18:54:10.350Z,27.63
2017-07-10T18:56:39.857Z,27.29
2017-07-10T18:59:09.295Z,27.09
2017-07-10T19:01:38.755Z,26.92
2017-07-10T19:04:08.198Z,26.77
2017-07-10T19:06:37.645Z,26.57
2017-07-10T19:09:07.186Z,26.43
2017-07-10T19:11:36.619Z,26.31
2017-07-10T19:14:06.119Z,26.16
2017-07-10T19:16:35.577Z,26.11
2017-07-10T19:19:05.015Z,26.09
2017-07-10T19:21:34.483Z,26.01
2017-07-10T19:24:03.959Z,25.74
2017-07-10T19:26:33.418Z,25.48
2017-07-10T19:29:02.913Z,25.41
2017-07-10T19:31:32.359Z,25.37
2017-07-10T19:34:01.813Z,25.26
2017-07-10T19:36:31.272Z,25.21
2017-07-10T19:39:00.936Z,25.14
2017-07-10T19:41:30.402Z,25.02
2017-07-10T19:43:59.862Z,25.10
2017-07-10T19:46:29.403Z,25.15
2017-07-10T19:48:58.843Z,25.12
2017-07-10T19:51:28.716Z,25.10
2017-07-10T19:53:58.397Z,25.01
2017-07-10T19:56:27.884Z,24.94
2017-07-10T19:58:57.427Z,24.65
2017-07-10T20:01:26.701Z,24.50
2017-07-10T20:03:56.333Z,24.42
2017-07-10T20:06:25.906Z,24.38
2017-07-10T20:08:55.598Z,24.25
2017-07-10T20:11:25.216Z,24.12
2017-07-10T20:13:54.668Z,23.57
2017-07-10T20:16:24.130Z,23.06
2017-07-10T20:18:54.525Z,22.67
2017-07-10T20:21:24.679Z,22.40
2017-07-10T20:23:54.489Z,22.17
2017-07-10T20:26:24.132Z,21.88
2017-07-10T20:28:53.438Z,21.75
2017-07-10T20:31:23.023Z,21.69
2017-07-10T20:33:52.526Z,21.62
2017-07-10T20:36:22.077Z,21.51
2017-07-10T20:38:51.545Z,21.40
2017-07-10T20:41:21.357Z,21.26
2017-07-10T20:43:51.085Z,21.15
2017-07-10T20:46:20.831Z,21.08
2017-07-10T20:48:50.686Z,21.02
2017-07-10T20:51:20.337Z,20.99
2017-07-10T20:53:50.073Z,20.96
2017-07-10T20:56:19.905Z,20.97
2017-07-10T20:58:49.594Z,20.95
2017-07-10T21:01:19.060Z,20.97
2017-07-10T21:03:48.995Z,20.96
2017-07-10T21:06:18.958Z,20.93
2017-07-10T21:08:48.624Z,20.91
2017-07-10T21:11:17.923Z,20.83
2017-07-10T21:13:47.503Z,20.85
2017-07-10T21:16:17.285Z,20.84
2017-07-10T21:18:46.913Z,20.85
2017-07-10T21:21:16.386Z,20.85
2017-07-10T21:23:45.849Z,20.84
2017-07-10T21:26:15.666Z,20.81
2017-07-10T21:28:45.396Z,20.80
2017-07-10T21:31:15.091Z,20.80
2017-07-10T21:33:44.563Z,20.78
2017-07-10T21:36:14.392Z,20.76
2017-07-10T21:38:44.163Z,20.76
2017-07-10T21:41:13.974Z,20.72
2017-07-10T21:43:43.514Z,20.68
2017-07-10T21:46:13.012Z,20.66
2017-07-10T21:48:42.701Z,20.63
2017-07-10T21:51:12.439Z,20.66
2017-07-10T21:53:42.008Z,20.66
2017-07-10T21:56:11.622Z,20.63
2017-07-10T21:58:41.073Z,20.61
2017-07-10T22:01:10.598Z,20.58
2017-07-10T22:03:40.293Z,20.50
2017-07-10T22:06:09.762Z,20.55
2017-07-10T22:08:40.279Z,20.52
2017-07-10T22:11:09.987Z,20.50
2017-07-10T22:13:39.423Z,20.46
2017-07-10T22:16:08.878Z,20.48
2017-07-10T22:18:38.358Z,20.46
2017-07-10T22:21:07.815Z,20.34
2017-07-10T22:23:37.299Z,20.36
2017-07-10T22:26:06.758Z,20.30
2017-07-10T22:28:36.213Z,20.25
2017-07-10T22:31:05.647Z,20.21
2017-07-10T22:33:35.099Z,20.15
2017-07-10T22:36:04.542Z,20.11
2017-07-10T22:38:33.983Z,20.17
2017-07-10T22:41:03.433Z,20.18
2017-07-10T22:43:32.886Z,20.11
2017-07-10T22:46:02.362Z,20.16
2017-07-10T22:48:31.822Z,20.17
2017-07-10T22:51:01.266Z,20.22
2017-07-10T22:53:30.706Z,20.16
2017-07-10T22:56:00.185Z,20.21
2017-07-10T22:58:29.629Z,20.26
2017-07-10T23:00:59.077Z,20.21
2017-07-10T23:03:28.536Z,20.19
2017-07-10T23:05:57.989Z,20.20
2017-07-10T23:08:27.451Z,20.17
2017-07-10T23:10:56.931Z,20.26
2017-07-10T23:13:26.373Z,20.32
2017-07-10T23:15:55.832Z,20.27
2017-07-10T23:18:25.284Z,20.24
2017-07-10T23:20:54.735Z,20.28
2017-07-10T23:23:24.210Z,20.24
2017-07-10T23:25:53.650Z,20.20
2017-07-10T23:28:23.089Z,20.17
2017-07-10T23:30:52.548Z,20.11
2017-07-10T23:33:22.028Z,20.12
2017-07-10T23:35:51.471Z,20.28
2017-07-10T23:38:20.910Z,20.16
2017-07-10T23:40:50.365Z,20.21
2017-07-10T23:43:19.820Z,20.14
2017-07-10T23:45:50.209Z,20.09
2017-07-10T23:48:19.648Z,20.11
2017-07-10T23:50:49.103Z,20.10
2017-07-10T23:53:18.546Z,20.15
2017-07-10T23:55:47.997Z,20.12
2017-07-10T23:58:17.453Z,20.04
